sensor_id;sensor_type;location;lat;lon;timestamp;pressure;altitude;pressure_sealevel;temperature;humidity
64698;BME280;51124;53.394;-6.294;2022-07-04T00:02:14;101393.98;;;22.60;12.13
64698;BME280;51124;53.394;-6.294;2022-07-04T00:04:48;101386.53;;;22.76;12.12
64698;BME280;51124;53.394;-6.294;2022-07-04T00:07:22;101378.36;;;22.68;12.11
64698;BME280;51124;53.394;-6.294;2022-07-04T00:09:56;101379.79;;;22.70;12.12
64698;BME280;51124;53.394;-6.294;2022-07-04T00:12:30;101375.23;;;22.70;12.17
64698;BME280;51124;53.394;-6.294;2022-07-04T00:15:06;101376.66;;;22.20;12.25
64698;BME280;51124;53.394;-6.294;2022-07-04T00:17:30;101382.33;;;22.77;11.99
64698;BME280;51124;53.394;-6.294;2022-07-04T00:20:06;101377.90;;;22.69;12.11
64698;BME280;51124;53.394;-6.294;2022-07-04T00:22:30;101377.45;;;22.70;12.10
64698;BME280;51124;53.394;-6.294;2022-07-04T00:25:05;101379.95;;;22.74;12.07
64698;BME280;51124;53.394;-6.294;2022-07-04T00:27:39;101375.88;;;23.05;12.13
64698;BME280;51124;53.394;-6.294;2022-07-04T00:30:13;101375.95;;;21.70;12.54
64698;BME280;51124;53.394;-6.294;2022-07-04T00:32:47;101377.70;;;22.07;12.17
64698;BME280;51124;53.394;-6.294;2022-07-04T00:35:21;101385.74;;;23.11;11.98
64698;BME280;51124;53.394;-6.294;2022-07-04T00:37:55;101387.92;;;22.41;12.12
64698;BME280;51124;53.394;-6.294;2022-07-04T00:40:29;101384.61;;;22.42;11.99
64698;BME280;51124;53.394;-6.294;2022-07-04T00:43:04;101383.39;;;21.82;12.26
64698;BME280;51124;53.394;-6.294;2022-07-04T00:45:28;101381.12;;;22.08;12.29
64698;BME280;51124;53.394;-6.294;2022-07-04T00:48:02;101386.45;;;22.99;11.94
64698;BME280;51124;53.394;-6.294;2022-07-04T00:50:36;101383.18;;;23.32;11.91
64698;BME280;51124;53.394;-6.294;2022-07-04T00:53:10;101382.96;;;22.38;12.19
64698;BME280;51124;53.394;-6.294;2022-07-04T00:55:44;101378.34;;;22.85;12.12
64698;BME280;51124;53.394;-6.294;2022-07-04T00:58:21;101377.46;;;22.61;12.24
64698;BME280;51124;53.394;-6.294;2022-07-04T01:00:44;101378.42;;;22.48;12.12
64698;BME280;51124;53.394;-6.294;2022-07-04T01:03:18;101377.36;;;21.74;12.49
64698;BME280;51124;53.394;-6.294;2022-07-04T01:05:52;101377.54;;;22.06;12.10
64698;BME280;51124;53.394;-6.294;2022-07-04T01:08:27;101380.30;;;22.41;12.27
64698;BME280;51124;53.394;-6.294;2022-07-04T01:11:01;101381.93;;;22.80;12.02
64698;BME280;51124;53.394;-6.294;2022-07-04T01:13:35;101380.77;;;22.11;12.28
64698;BME280;51124;53.394;-6.294;2022-07-04T01:16:10;101377.79;;;21.55;12.53
64698;BME280;51124;53.394;-6.294;2022-07-04T01:18:44;101378.43;;;22.29;12.19
64698;BME280;51124;53.394;-6.294;2022-07-04T01:21:19;101375.80;;;22.61;12.17
64698;BME280;51124;53.394;-6.294;2022-07-04T01:23:53;101373.98;;;21.95;12.29
64698;BME280;51124;53.394;-6.294;2022-07-04T01:26:27;101374.11;;;22.61;12.18
64698;BME280;51124;53.394;-6.294;2022-07-04T01:29:01;101373.16;;;22.04;12.40
64698;BME280;51124;53.394;-6.294;2022-07-04T01:31:35;101371.44;;;21.87;12.39
64698;BME280;51124;53.394;-6.294;2022-07-04T01:34:09;101368.24;;;22.53;12.31
64698;BME280;51124;53.394;-6.294;2022-07-04T01:36:43;101365.75;;;22.13;12.29
64698;BME280;51124;53.394;-6.294;2022-07-04T01:39:17;101358.89;;;22.47;12.22
64698;BME280;51124;53.394;-6.294;2022-07-04T01:41:51;101362.17;;;22.56;12.14
64698;BME280;51124;53.394;-6.294;2022-07-04T01:44:25;101362.34;;;21.60;12.58
64698;BME280;51124;53.394;-6.294;2022-07-04T01:46:59;101359.70;;;22.06;12.30
64698;BME280;51124;53.394;-6.294;2022-07-04T01:49:33;101360.50;;;22.45;12.27
64698;BME280;51124;53.394;-6.294;2022-07-04T01:52:07;101354.24;;;22.75;12.21
64698;BME280;51124;53.394;-6.294;2022-07-04T01:54:41;101354.48;;;21.95;12.31
64698;BME280;51124;53.394;-6.294;2022-07-04T01:57:15;101354.86;;;23.01;12.11
64698;BME280;51124;53.394;-6.294;2022-07-04T01:59:50;101350.73;;;22.75;12.06
64698;BME280;51124;53.394;-6.294;2022-07-04T02:02:24;101343.83;;;21.99;12.29
64698;BME280;51124;53.394;-6.294;2022-07-04T02:04:59;101339.57;;;22.65;12.05
64698;BME280;51124;53.394;-6.294;2022-07-04T02:07:33;101337.17;;;22.21;12.13
64698;BME280;51124;53.394;-6.294;2022-07-04T02:10:08;101335.59;;;22.07;12.28
64698;BME280;51124;53.394;-6.294;2022-07-04T02:12:42;101333.38;;;21.83;12.22
64698;BME280;51124;53.394;-6.294;2022-07-04T02:15:16;101334.21;;;22.52;12.22
64698;BME280;51124;53.394;-6.294;2022-07-04T02:17:50;101333.92;;;21.80;12.36
64698;BME280;51124;53.394;-6.294;2022-07-04T02:20:25;101330.24;;;21.53;12.46
64698;BME280;51124;53.394;-6.294;2022-07-04T02:22:59;101328.83;;;22.34;12.22
64698;BME280;51124;53.394;-6.294;2022-07-04T02:25:33;101324.76;;;21.98;12.17
64698;BME280;51124;53.394;-6.294;2022-07-04T02:28:07;101322.83;;;22.40;12.43
64698;BME280;51124;53.394;-6.294;2022-07-04T02:30:41;101319.62;;;21.50;12.40
64698;BME280;51124;53.394;-6.294;2022-07-04T02:33:15;101320.04;;;22.05;12.23
64698;BME280;51124;53.394;-6.294;2022-07-04T02:35:50;101321.04;;;22.67;12.18
64698;BME280;51124;53.394;-6.294;2022-07-04T02:38:23;101317.64;;;20.19;12.80
64698;BME280;51124;53.394;-6.294;2022-07-04T02:40:57;101314.82;;;22.23;12.19
64698;BME280;51124;53.394;-6.294;2022-07-04T02:43:31;101310.33;;;21.05;12.72
64698;BME280;51124;53.394;-6.294;2022-07-04T02:46:05;101306.65;;;22.18;12.19
64698;BME280;51124;53.394;-6.294;2022-07-04T02:48:39;101304.14;;;22.10;12.25
64698;BME280;51124;53.394;-6.294;2022-07-04T02:51:13;101301.98;;;21.80;12.44
64698;BME280;51124;53.394;-6.294;2022-07-04T02:53:47;101304.48;;;21.81;12.36
64698;BME280;51124;53.394;-6.294;2022-07-04T02:56:22;101298.84;;;21.76;12.26
64698;BME280;51124;53.394;-6.294;2022-07-04T02:58:56;101296.38;;;21.48;12.40
64698;BME280;51124;53.394;-6.294;2022-07-04T03:01:30;101291.70;;;21.83;12.40
64698;BME280;51124;53.394;-6.294;2022-07-04T03:04:04;101294.91;;;21.84;12.32
64698;BME280;51124;53.394;-6.294;2022-07-04T03:06:38;101296.88;;;21.79;12.41
64698;BME280;51124;53.394;-6.294;2022-07-04T03:09:12;101298.52;;;21.87;12.24
64698;BME280;51124;53.394;-6.294;2022-07-04T03:11:46;101299.57;;;22.00;12.34
64698;BME280;51124;53.394;-6.294;2022-07-04T03:14:20;101298.16;;;21.89;12.43
64698;BME280;51124;53.394;-6.294;2022-07-04T03:16:54;101294.97;;;21.16;12.66
64698;BME280;51124;53.394;-6.294;2022-07-04T03:19:29;101293.08;;;21.51;12.48
64698;BME280;51124;53.394;-6.294;2022-07-04T03:22:03;101298.46;;;21.48;12.39
64698;BME280;51124;53.394;-6.294;2022-07-04T03:24:37;101304.77;;;21.42;12.42
64698;BME280;51124;53.394;-6.294;2022-07-04T03:27:11;101303.39;;;21.65;12.61
64698;BME280;51124;53.394;-6.294;2022-07-04T03:29:45;101297.22;;;21.39;12.54
64698;BME280;51124;53.394;-6.294;2022-07-04T03:32:19;101290.83;;;21.45;12.51
64698;BME280;51124;53.394;-6.294;2022-07-04T03:34:53;101302.56;;;20.83;12.70
64698;BME280;51124;53.394;-6.294;2022-07-04T03:37:27;101300.92;;;21.56;12.54
64698;BME280;51124;53.394;-6.294;2022-07-04T03:40:02;101300.89;;;21.78;12.52
64698;BME280;51124;53.394;-6.294;2022-07-04T03:42:36;101297.45;;;21.98;12.30
64698;BME280;51124;53.394;-6.294;2022-07-04T03:45:10;101300.50;;;21.65;12.31
64698;BME280;51124;53.394;-6.294;2022-07-04T03:47:44;101302.36;;;21.79;12.35
64698;BME280;51124;53.394;-6.294;2022-07-04T03:50:19;101305.77;;;21.22;12.46
64698;BME280;51124;53.394;-6.294;2022-07-04T03:52:53;101305.05;;;21.76;12.56
64698;BME280;51124;53.394;-6.294;2022-07-04T03:55:27;101304.05;;;20.56;12.93
64698;BME280;51124;53.394;-6.294;2022-07-04T03:58:01;101303.75;;;20.33;12.98
64698;BME280;51124;53.394;-6.294;2022-07-04T04:00:35;101304.38;;;20.93;12.58
64698;BME280;51124;53.394;-6.294;2022-07-04T04:03:09;101307.79;;;21.63;12.54
64698;BME280;51124;53.394;-6.294;2022-07-04T04:05:43;101305.88;;;21.71;12.43
64698;BME280;51124;53.394;-6.294;2022-07-04T04:08:17;101304.62;;;21.59;12.38
64698;BME280;51124;53.394;-6.294;2022-07-04T04:10:51;101306.48;;;20.77;12.76
64698;BME280;51124;53.394;-6.294;2022-07-04T04:13:25;101308.67;;;20.92;12.69
64698;BME280;51124;53.394;-6.294;2022-07-04T04:16:00;101308.04;;;21.62;12.29
64698;BME280;51124;53.394;-6.294;2022-07-04T04:18:34;101314.60;;;20.97;12.72
64698;BME280;51124;53.394;-6.294;2022-07-04T04:21:08;101312.47;;;21.27;12.52
64698;BME280;51124;53.394;-6.294;2022-07-04T04:23:42;101310.30;;;20.62;12.78
64698;BME280;51124;53.394;-6.294;2022-07-04T04:26:16;101315.43;;;21.05;12.69
64698;BME280;51124;53.394;-6.294;2022-07-04T04:28:50;101311.22;;;21.54;12.62
64698;BME280;51124;53.394;-6.294;2022-07-04T04:31:25;101315.53;;;21.73;12.50
64698;BME280;51124;53.394;-6.294;2022-07-04T04:33:59;101315.87;;;21.37;12.61
64698;BME280;51124;53.394;-6.294;2022-07-04T04:36:33;101312.79;;;21.33;12.49
64698;BME280;51124;53.394;-6.294;2022-07-04T04:39:07;101312.40;;;20.76;12.74
64698;BME280;51124;53.394;-6.294;2022-07-04T04:41:41;101310.13;;;21.13;12.46
64698;BME280;51124;53.394;-6.294;2022-07-04T04:44:15;101306.85;;;21.42;12.46
64698;BME280;51124;53.394;-6.294;2022-07-04T04:46:49;101307.38;;;20.56;12.86
64698;BME280;51124;53.394;-6.294;2022-07-04T04:49:23;101301.78;;;20.86;12.70
64698;BME280;51124;53.394;-6.294;2022-07-04T04:51:57;101306.58;;;21.03;12.59
64698;BME280;51124;53.394;-6.294;2022-07-04T04:54:31;101324.70;;;21.36;12.47
64698;BME280;51124;53.394;-6.294;2022-07-04T04:57:05;101330.49;;;20.83;12.59
64698;BME280;51124;53.394;-6.294;2022-07-04T04:59:39;101330.30;;;21.10;12.54
64698;BME280;51124;53.394;-6.294;2022-07-04T05:02:13;101344.95;;;20.32;12.78
64698;BME280;51124;53.394;-6.294;2022-07-04T05:04:47;101348.93;;;21.70;12.27
64698;BME280;51124;53.394;-6.294;2022-07-04T05:07:21;101350.90;;;21.43;12.42
64698;BME280;51124;53.394;-6.294;2022-07-04T05:09:55;101350.50;;;21.46;12.47
64698;BME280;51124;53.394;-6.294;2022-07-04T05:12:29;101354.66;;;21.43;12.51
64698;BME280;51124;53.394;-6.294;2022-07-04T05:15:04;101351.90;;;21.95;12.29
64698;BME280;51124;53.394;-6.294;2022-07-04T05:17:38;101353.96;;;21.71;12.40
64698;BME280;51124;53.394;-6.294;2022-07-04T05:20:12;101348.04;;;20.87;12.46
64698;BME280;51124;53.394;-6.294;2022-07-04T05:22:46;101350.92;;;21.95;12.09
64698;BME280;51124;53.394;-6.294;2022-07-04T05:25:20;101343.76;;;22.48;12.11
64698;BME280;51124;53.394;-6.294;2022-07-04T05:27:54;101340.35;;;21.73;12.18
64698;BME280;51124;53.394;-6.294;2022-07-04T05:30:29;101341.08;;;21.88;12.26
64698;BME280;51124;53.394;-6.294;2022-07-04T05:33:03;101340.97;;;21.13;12.30
64698;BME280;51124;53.394;-6.294;2022-07-04T05:35:37;101338.44;;;21.40;12.49
64698;BME280;51124;53.394;-6.294;2022-07-04T05:38:11;101335.87;;;21.87;12.22
64698;BME280;51124;53.394;-6.294;2022-07-04T05:40:55;101331.86;;;21.91;12.20
64698;BME280;51124;53.394;-6.294;2022-07-04T05:43:29;101337.00;;;22.29;12.15
64698;BME280;51124;53.394;-6.294;2022-07-04T05:46:03;101337.97;;;21.97;12.15
64698;BME280;51124;53.394;-6.294;2022-07-04T05:48:37;101335.28;;;22.20;12.04
64698;BME280;51124;53.394;-6.294;2022-07-04T05:51:11;101335.43;;;22.63;11.93
64698;BME280;51124;53.394;-6.294;2022-07-04T05:53:45;101339.07;;;21.79;12.21
64698;BME280;51124;53.394;-6.294;2022-07-04T05:56:19;101336.55;;;22.55;11.95
64698;BME280;51124;53.394;-6.294;2022-07-04T05:58:53;101343.72;;;22.51;11.77
64698;BME280;51124;53.394;-6.294;2022-07-04T06:01:27;101348.33;;;21.96;12.09
64698;BME280;51124;53.394;-6.294;2022-07-04T06:04:01;101350.38;;;22.39;11.88
64698;BME280;51124;53.394;-6.294;2022-07-04T06:06:35;101351.54;;;21.84;12.13
64698;BME280;51124;53.394;-6.294;2022-07-04T06:09:09;101353.72;;;21.59;12.27
64698;BME280;51124;53.394;-6.294;2022-07-04T06:11:44;101358.62;;;22.36;11.90
64698;BME280;51124;53.394;-6.294;2022-07-04T06:14:18;101354.59;;;21.77;12.22
64698;BME280;51124;53.394;-6.294;2022-07-04T06:16:52;101347.22;;;22.53;11.96
64698;BME280;51124;53.394;-6.294;2022-07-04T06:19:27;101352.29;;;22.58;11.79
64698;BME280;51124;53.394;-6.294;2022-07-04T06:22:01;101349.15;;;22.85;11.79
64698;BME280;51124;53.394;-6.294;2022-07-04T06:24:35;101343.24;;;22.94;11.58
64698;BME280;51124;53.394;-6.294;2022-07-04T06:27:09;101341.93;;;22.98;11.74
64698;BME280;51124;53.394;-6.294;2022-07-04T06:29:43;101347.62;;;22.42;11.71
64698;BME280;51124;53.394;-6.294;2022-07-04T06:32:17;101350.50;;;22.67;11.68
64698;BME280;51124;53.394;-6.294;2022-07-04T06:34:52;101355.93;;;22.64;11.70
64698;BME280;51124;53.394;-6.294;2022-07-04T06:37:26;101358.03;;;22.87;11.50
64698;BME280;51124;53.394;-6.294;2022-07-04T06:40:00;101364.63;;;23.22;11.66
64698;BME280;51124;53.394;-6.294;2022-07-04T06:42:34;101365.62;;;22.87;11.76
64698;BME280;51124;53.394;-6.294;2022-07-04T06:45:09;101369.69;;;23.14;11.44
64698;BME280;51124;53.394;-6.294;2022-07-04T06:47:33;101364.51;;;22.94;11.60
64698;BME280;51124;53.394;-6.294;2022-07-04T06:50:09;101367.17;;;23.35;11.44
64698;BME280;51124;53.394;-6.294;2022-07-04T06:52:43;101366.26;;;23.45;11.33
64698;BME280;51124;53.394;-6.294;2022-07-04T06:55:17;101372.32;;;23.12;11.68
64698;BME280;51124;53.394;-6.294;2022-07-04T06:57:51;101381.30;;;22.70;11.69
64698;BME280;51124;53.394;-6.294;2022-07-04T07:00:25;101389.93;;;23.02;11.63
64698;BME280;51124;53.394;-6.294;2022-07-04T07:03:00;101392.37;;;22.54;11.78
64698;BME280;51124;53.394;-6.294;2022-07-04T07:05:34;101393.39;;;22.27;12.09
64698;BME280;51124;53.394;-6.294;2022-07-04T07:08:08;101392.60;;;23.06;11.66
64698;BME280;51124;53.394;-6.294;2022-07-04T07:10:42;101390.56;;;23.10;11.56
64698;BME280;51124;53.394;-6.294;2022-07-04T07:13:17;101391.77;;;23.30;11.54
64698;BME280;51124;53.394;-6.294;2022-07-04T07:15:51;101390.43;;;23.06;11.69
64698;BME280;51124;53.394;-6.294;2022-07-04T07:18:25;101392.63;;;23.37;11.47
64698;BME280;51124;53.394;-6.294;2022-07-04T07:20:59;101389.00;;;23.51;11.46
64698;BME280;51124;53.394;-6.294;2022-07-04T07:23:33;101395.17;;;20.96;12.16
64698;BME280;51124;53.394;-6.294;2022-07-04T07:26:07;101398.47;;;21.81;12.10
64698;BME280;51124;53.394;-6.294;2022-07-04T07:28:32;101403.44;;;22.65;12.08
64698;BME280;51124;53.394;-6.294;2022-07-04T07:31:06;101407.34;;;21.63;12.40
64698;BME280;51124;53.394;-6.294;2022-07-04T07:33:41;101409.89;;;20.72;12.87
64698;BME280;51124;53.394;-6.294;2022-07-04T07:36:14;101407.51;;;16.48;12.18
64698;BME280;51124;53.394;-6.294;2022-07-04T07:38:49;101412.63;;;22.32;11.66
64698;BME280;51124;53.394;-6.294;2022-07-04T07:41:23;101420.80;;;21.67;11.99
64698;BME280;51124;53.394;-6.294;2022-07-04T07:43:57;101419.22;;;21.59;12.32
64698;BME280;51124;53.394;-6.294;2022-07-04T07:46:31;101421.16;;;21.50;12.54
64698;BME280;51124;53.394;-6.294;2022-07-04T07:49:05;101428.54;;;20.84;12.61
64698;BME280;51124;53.394;-6.294;2022-07-04T07:51:40;101423.54;;;21.87;12.38
64698;BME280;51124;53.394;-6.294;2022-07-04T07:54:14;101428.54;;;21.43;12.61
64698;BME280;51124;53.394;-6.294;2022-07-04T07:56:48;101432.76;;;22.16;12.29
64698;BME280;51124;53.394;-6.294;2022-07-04T07:59:22;101429.83;;;21.50;12.46
64698;BME280;51124;53.394;-6.294;2022-07-04T08:01:56;101426.70;;;21.64;12.51
64698;BME280;51124;53.394;-6.294;2022-07-04T08:04:30;101424.02;;;21.34;12.71
64698;BME280;51124;53.394;-6.294;2022-07-04T08:07:05;101421.58;;;21.06;12.58
64698;BME280;51124;53.394;-6.294;2022-07-04T08:09:30;101416.75;;;21.60;12.47
64698;BME280;51124;53.394;-6.294;2022-07-04T08:12:05;101414.28;;;22.81;11.67
64698;BME280;51124;53.394;-6.294;2022-07-04T08:14:30;101415.70;;;23.35;10.98
64698;BME280;51124;53.394;-6.294;2022-07-04T08:17:04;101423.64;;;22.69;11.58
64698;BME280;51124;53.394;-6.294;2022-07-04T08:19:38;101425.64;;;22.58;11.96
64698;BME280;51124;53.394;-6.294;2022-07-04T08:22:12;101425.85;;;22.48;11.75
64698;BME280;51124;53.394;-6.294;2022-07-04T08:24:46;101429.26;;;22.57;12.03
64698;BME280;51124;53.394;-6.294;2022-07-04T08:27:20;101436.16;;;22.01;12.28
64698;BME280;51124;53.394;-6.294;2022-07-04T08:29:54;101441.06;;;22.58;12.26
64698;BME280;51124;53.394;-6.294;2022-07-04T08:32:28;101443.14;;;23.39;11.79
64698;BME280;51124;53.394;-6.294;2022-07-04T08:35:03;101449.35;;;21.68;12.30
64698;BME280;51124;53.394;-6.294;2022-07-04T08:37:27;101451.01;;;21.60;12.68
64698;BME280;51124;53.394;-6.294;2022-07-04T08:40:02;101452.72;;;22.26;12.58
64698;BME280;51124;53.394;-6.294;2022-07-04T08:42:29;101450.10;;;21.64;12.62
64698;BME280;51124;53.394;-6.294;2022-07-04T08:44:54;101449.13;;;22.38;12.14
64698;BME280;51124;53.394;-6.294;2022-07-04T08:47:29;101448.80;;;22.12;12.64
64698;BME280;51124;53.394;-6.294;2022-07-04T08:49:59;101458.59;;;22.72;12.15
64698;BME280;51124;53.394;-6.294;2022-07-04T08:52:35;101454.66;;;23.48;11.87
64698;BME280;51124;53.394;-6.294;2022-07-04T08:55:01;101460.02;;;22.08;12.40
64698;BME280;51124;53.394;-6.294;2022-07-04T08:57:25;101459.92;;;22.15;12.32
64698;BME280;51124;53.394;-6.294;2022-07-04T09:00:00;101462.00;;;22.68;12.21
64698;BME280;51124;53.394;-6.294;2022-07-04T09:02:34;101461.85;;;22.90;12.02
64698;BME280;51124;53.394;-6.294;2022-07-04T09:05:08;101461.83;;;22.17;12.01
64698;BME280;51124;53.394;-6.294;2022-07-04T09:07:43;101460.94;;;20.48;11.87
64698;BME280;51124;53.394;-6.294;2022-07-04T09:10:18;101460.62;;;22.78;11.86
64698;BME280;51124;53.394;-6.294;2022-07-04T09:12:52;101459.73;;;22.40;11.96
64698;BME280;51124;53.394;-6.294;2022-07-04T09:15:27;101462.88;;;23.96;11.69
64698;BME280;51124;53.394;-6.294;2022-07-04T09:18:02;101466.25;;;24.34;11.26
64698;BME280;51124;53.394;-6.294;2022-07-04T09:20:28;101468.91;;;24.41;11.50
64698;BME280;51124;53.394;-6.294;2022-07-04T09:22:54;101471.38;;;23.45;11.43
64698;BME280;51124;53.394;-6.294;2022-07-04T09:25:19;101465.83;;;24.12;11.57
64698;BME280;51124;53.394;-6.294;2022-07-04T09:27:55;101464.50;;;24.01;11.37
64698;BME280;51124;53.394;-6.294;2022-07-04T09:30:26;101463.11;;;24.43;11.21
64698;BME280;51124;53.394;-6.294;2022-07-04T09:32:51;101470.37;;;24.31;11.51
64698;BME280;51124;53.394;-6.294;2022-07-04T09:35:27;101470.07;;;23.34;11.61
64698;BME280;51124;53.394;-6.294;2022-07-04T09:37:53;101474.16;;;22.80;11.64
64698;BME280;51124;53.394;-6.294;2022-07-04T09:40:26;101468.80;;;24.50;11.29
64698;BME280;51124;53.394;-6.294;2022-07-04T09:42:51;101462.84;;;25.12;11.11
64698;BME280;51124;53.394;-6.294;2022-07-04T09:45:26;101467.84;;;24.80;11.14
64698;BME280;51124;53.394;-6.294;2022-07-04T09:47:53;101474.78;;;23.92;11.59
64698;BME280;51124;53.394;-6.294;2022-07-04T09:50:19;101476.17;;;24.27;11.45
64698;BME280;51124;53.394;-6.294;2022-07-04T09:52:45;101477.81;;;24.31;11.29
64698;BME280;51124;53.394;-6.294;2022-07-04T09:55:10;101479.17;;;24.53;11.09
64698;BME280;51124;53.394;-6.294;2022-07-04T09:57:44;101485.25;;;24.46;10.98
64698;BME280;51124;53.394;-6.294;2022-07-04T10:00:20;101483.76;;;24.74;11.28
64698;BME280;51124;53.394;-6.294;2022-07-04T10:02:45;101482.80;;;24.89;10.95
64698;BME280;51124;53.394;-6.294;2022-07-04T10:05:22;101493.04;;;24.13;11.15
64698;BME280;51124;53.394;-6.294;2022-07-04T10:07:47;101485.54;;;24.84;11.01
64698;BME280;51124;53.394;-6.294;2022-07-04T10:10:24;101491.38;;;24.74;11.06
64698;BME280;51124;53.394;-6.294;2022-07-04T10:12:49;101489.32;;;24.92;11.01
64698;BME280;51124;53.394;-6.294;2022-07-04T10:15:23;101492.32;;;24.94;11.09
64698;BME280;51124;53.394;-6.294;2022-07-04T10:17:57;101500.77;;;25.17;11.04
64698;BME280;51124;53.394;-6.294;2022-07-04T10:20:32;101506.60;;;24.47;11.21
64698;BME280;51124;53.394;-6.294;2022-07-04T10:23:06;101504.61;;;24.73;11.18
64698;BME280;51124;53.394;-6.294;2022-07-04T10:25:41;101511.95;;;24.68;11.35
64698;BME280;51124;53.394;-6.294;2022-07-04T10:28:16;101509.36;;;25.08;11.32
64698;BME280;51124;53.394;-6.294;2022-07-04T10:30:41;101509.42;;;25.28;11.26
64698;BME280;51124;53.394;-6.294;2022-07-04T10:33:16;101512.55;;;24.85;11.34
64698;BME280;51124;53.394;-6.294;2022-07-04T10:35:52;101510.37;;;25.05;11.12
64698;BME280;51124;53.394;-6.294;2022-07-04T10:38:18;101514.01;;;24.61;11.20
64698;BME280;51124;53.394;-6.294;2022-07-04T10:40:44;101509.26;;;25.24;11.01
64698;BME280;51124;53.394;-6.294;2022-07-04T10:44:21;101507.95;;;25.12;11.01
64698;BME280;51124;53.394;-6.294;2022-07-04T10:45:44;101511.80;;;25.67;10.91
64698;BME280;51124;53.394;-6.294;2022-07-04T10:48:20;101513.47;;;25.21;10.87
64698;BME280;51124;53.394;-6.294;2022-07-04T10:50:58;101508.07;;;24.98;10.95
64698;BME280;51124;53.394;-6.294;2022-07-04T10:53:12;101515.83;;;24.85;10.85
64698;BME280;51124;53.394;-6.294;2022-07-04T10:55:46;101522.59;;;25.69;10.78
64698;BME280;51124;53.394;-6.294;2022-07-04T10:58:38;101521.87;;;25.32;10.82
64698;BME280;51124;53.394;-6.294;2022-07-04T11:01:10;101520.41;;;25.26;10.93
64698;BME280;51124;53.394;-6.294;2022-07-04T11:03:25;101516.81;;;25.50;10.71
64698;BME280;51124;53.394;-6.294;2022-07-04T11:05:49;101525.93;;;25.12;10.39
64698;BME280;51124;53.394;-6.294;2022-07-04T11:08:23;101527.32;;;25.96;10.24
64698;BME280;51124;53.394;-6.294;2022-07-04T11:10:57;101528.63;;;25.88;10.24
64698;BME280;51124;53.394;-6.294;2022-07-04T11:13:31;101532.29;;;24.78;10.70
64698;BME280;51124;53.394;-6.294;2022-07-04T11:16:06;101533.04;;;25.41;10.67
64698;BME280;51124;53.394;-6.294;2022-07-04T11:18:42;101533.17;;;24.61;10.81
64698;BME280;51124;53.394;-6.294;2022-07-04T11:21:15;101537.18;;;25.43;10.77
64698;BME280;51124;53.394;-6.294;2022-07-04T11:23:49;101546.48;;;24.94;10.86
64698;BME280;51124;53.394;-6.294;2022-07-04T11:26:13;101542.24;;;24.89;10.90
64698;BME280;51124;53.394;-6.294;2022-07-04T11:28:47;101540.79;;;25.30;10.76
64698;BME280;51124;53.394;-6.294;2022-07-04T11:31:35;101542.04;;;24.62;10.91
64698;BME280;51124;53.394;-6.294;2022-07-04T11:33:54;101541.75;;;25.45;10.94
64698;BME280;51124;53.394;-6.294;2022-07-04T11:36:19;101539.72;;;24.59;10.67
64698;BME280;51124;53.394;-6.294;2022-07-04T11:38:55;101544.83;;;24.90;10.58
64698;BME280;51124;53.394;-6.294;2022-07-04T11:41:21;101546.12;;;25.30;10.43
64698;BME280;51124;53.394;-6.294;2022-07-04T11:43:45;101555.49;;;24.86;10.76
64698;BME280;51124;53.394;-6.294;2022-07-04T11:46:19;101555.19;;;25.21;10.57
64698;BME280;51124;53.394;-6.294;2022-07-04T11:49:07;101555.21;;;24.48;11.18
64698;BME280;51124;53.394;-6.294;2022-07-04T11:51:20;101560.73;;;24.69;10.87
64698;BME280;51124;53.394;-6.294;2022-07-04T11:54:03;101563.78;;;23.94;10.59
64698;BME280;51124;53.394;-6.294;2022-07-04T11:56:27;101557.66;;;23.84;10.40
64698;BME280;51124;53.394;-6.294;2022-07-04T11:59:10;101555.15;;;25.17;9.80
64698;BME280;51124;53.394;-6.294;2022-07-04T12:01:34;101558.64;;;24.81;9.75
64698;BME280;51124;53.394;-6.294;2022-07-04T12:04:14;101557.05;;;25.35;9.74
64698;BME280;51124;53.394;-6.294;2022-07-04T12:06:38;101559.46;;;24.85;9.92
64698;BME280;51124;53.394;-6.294;2022-07-04T12:09:13;101560.14;;;24.60;9.95
64698;BME280;51124;53.394;-6.294;2022-07-04T12:12:10;101564.40;;;24.60;10.35
64698;BME280;51124;53.394;-6.294;2022-07-04T12:14:12;101567.60;;;24.56;10.25
64698;BME280;51124;53.394;-6.294;2022-07-04T12:16:36;101565.63;;;24.94;10.37
64698;BME280;51124;53.394;-6.294;2022-07-04T12:19:10;101567.27;;;25.06;10.43
64698;BME280;51124;53.394;-6.294;2022-07-04T12:21:45;101568.08;;;24.39;10.49
64698;BME280;51124;53.394;-6.294;2022-07-04T12:24:19;101561.55;;;25.07;10.24
64698;BME280;51124;53.394;-6.294;2022-07-04T12:26:53;101560.10;;;25.13;10.15
64698;BME280;51124;53.394;-6.294;2022-07-04T12:29:28;101558.30;;;24.98;10.25
64698;BME280;51124;53.394;-6.294;2022-07-04T12:32:02;101556.79;;;24.67;10.30
64698;BME280;51124;53.394;-6.294;2022-07-04T12:34:36;101561.96;;;25.05;10.31
64698;BME280;51124;53.394;-6.294;2022-07-04T12:37:11;101558.59;;;24.21;10.53
64698;BME280;51124;53.394;-6.294;2022-07-04T12:39:37;101557.59;;;24.93;10.42
64698;BME280;51124;53.394;-6.294;2022-07-04T12:42:10;101558.95;;;25.31;10.23
64698;BME280;51124;53.394;-6.294;2022-07-04T12:44:34;101563.54;;;25.24;10.41
64698;BME280;51124;53.394;-6.294;2022-07-04T12:47:10;101564.13;;;24.65;10.51
64698;BME280;51124;53.394;-6.294;2022-07-04T12:49:34;101561.60;;;24.54;10.43
64698;BME280;51124;53.394;-6.294;2022-07-04T12:52:11;101562.26;;;25.00;10.51
64698;BME280;51124;53.394;-6.294;2022-07-04T12:54:36;101562.40;;;25.26;10.32
64698;BME280;51124;53.394;-6.294;2022-07-04T12:57:12;101556.95;;;25.55;10.26
64698;BME280;51124;53.394;-6.294;2022-07-04T12:59:38;101560.36;;;26.06;10.22
64698;BME280;51124;53.394;-6.294;2022-07-04T13:02:02;101556.65;;;25.35;10.30
64698;BME280;51124;53.394;-6.294;2022-07-04T13:04:37;101559.87;;;25.40;10.28
64698;BME280;51124;53.394;-6.294;2022-07-04T13:07:13;101557.95;;;25.78;10.29
64698;BME280;51124;53.394;-6.294;2022-07-04T13:09:37;101559.56;;;25.72;10.40